BAW5DW EGLL-LPPT
Flight info
| Callsign | BAW5DW |
|---|---|
| Flight time | N/A |
| Altitude | 35000 |
| Route | GASGU2J GASGU N866 SAM M195 LORKU DCT POZOF DCT BALDA DCT ABUPI DCT XAMAX XAMAX2B |
| Aircraft | A21N/M-SDE3FGIJ1LRWXYZ/SB1G1 |
Departure
| Time | 2026-05-07 17:01 |
|---|---|
| Airport | London Heathrow Airport (EGLL) |
Arrival
| Time | N/A |
|---|---|
| Airport | Lisbon Humberto Delgado Airport (LPPT) |
| Time | Latitude | Longitude | Altitude | Speed | Heading |
|---|---|---|---|---|---|
| 2026-05-07 16:13 | 51.47270 | -0.48581 | 95 ft | 0 kts | 270° |
| 2026-05-07 16:52 | 51.47271 | -0.48569 | 92 ft | 4 kts | 270° |
| 2026-05-07 16:53 | 51.47271 | -0.48534 | 93 ft | 3 kts | 269° |
| 2026-05-07 16:53 | 51.47275 | -0.48494 | 94 ft | 4 kts | 237° |
| 2026-05-07 16:53 | 51.47292 | -0.48476 | 95 ft | 3 kts | 180° |
| 2026-05-07 16:53 | 51.47304 | -0.48476 | 93 ft | 1 kts | 180° |
| 2026-05-07 16:58 | 51.47294 | -0.48476 | 94 ft | 7 kts | 180° |
| 2026-05-07 16:58 | 51.47242 | -0.48476 | 93 ft | 8 kts | 180° |
| 2026-05-07 16:58 | 51.47179 | -0.48475 | 92 ft | 10 kts | 180° |
| 2026-05-07 16:58 | 51.47106 | -0.48475 | 92 ft | 12 kts | 180° |
| 2026-05-07 16:59 | 51.47018 | -0.48474 | 92 ft | 13 kts | 180° |
| 2026-05-07 16:59 | 51.46921 | -0.48473 | 92 ft | 15 kts | 180° |
| 2026-05-07 16:59 | 51.46813 | -0.48473 | 92 ft | 16 kts | 180° |
| 2026-05-07 16:59 | 51.46696 | -0.48472 | 92 ft | 18 kts | 180° |
| 2026-05-07 17:00 | 51.46568 | -0.48470 | 93 ft | 19 kts | 180° |
| 2026-05-07 17:00 | 51.46486 | -0.48442 | 95 ft | 11 kts | 136° |
| 2026-05-07 17:00 | 51.46483 | -0.48316 | 94 ft | 12 kts | 88° |
| 2026-05-07 17:00 | 51.46485 | -0.48172 | 95 ft | 14 kts | 88° |
| 2026-05-07 17:01 | 51.46483 | -0.47861 | 93 ft | 60 kts | 92° |
| 2026-05-07 17:01 | 51.46479 | -0.46808 | 94 ft | 126 kts | 88° |
| 2026-05-07 17:01 | 51.46479 | -0.45098 | 104 ft | 176 kts | 87° |
| 2026-05-07 17:01 | 51.46539 | -0.43180 | 847 ft | 170 kts | 88° |
| 2026-05-07 17:02 | 51.46596 | -0.41278 | 1603 ft | 173 kts | 83° |
| 2026-05-07 17:02 | 51.46680 | -0.39304 | 2208 ft | 182 kts | 82° |
| 2026-05-07 17:02 | 51.46807 | -0.37199 | 2849 ft | 196 kts | 80° |
| 2026-05-07 17:02 | 51.46961 | -0.34952 | 3488 ft | 211 kts | 87° |
| 2026-05-07 17:03 | 51.46481 | -0.32631 | 4012 ft | 232 kts | 123° |
| 2026-05-07 17:03 | 51.45220 | -0.30925 | 4522 ft | 251 kts | 158° |
| 2026-05-07 17:03 | 51.43453 | -0.30589 | 5066 ft | 267 kts | 192° |
| 2026-05-07 17:03 | 51.41804 | -0.32009 | 5594 ft | 274 kts | 228° |
| 2026-05-07 17:04 | 51.41041 | -0.34183 | 6044 ft | 269 kts | 258° |
| 2026-05-07 17:04 | 51.40666 | -0.37149 | 6455 ft | 272 kts | 255° |
| 2026-05-07 17:04 | 51.39811 | -0.39862 | 6069 ft | 272 kts | 236° |
| 2026-05-07 17:04 | 51.38416 | -0.41891 | 6106 ft | 273 kts | 206° |
| 2026-05-07 17:05 | 51.36559 | -0.42481 | 6070 ft | 275 kts | 184° |
| 2026-05-07 17:05 | 51.34637 | -0.42549 | 6010 ft | 275 kts | 179° |
| 2026-05-07 17:05 | 51.32744 | -0.42735 | 5970 ft | 274 kts | 194° |
| 2026-05-07 17:05 | 51.31085 | -0.44129 | 5968 ft | 272 kts | 224° |
| 2026-05-07 17:06 | 51.30030 | -0.46585 | 5986 ft | 269 kts | 249° |
| 2026-05-07 17:06 | 51.29492 | -0.49430 | 5991 ft | 266 kts | 263° |
| 2026-05-07 17:06 | 51.29365 | -0.52368 | 6162 ft | 265 kts | 270° |
| 2026-05-07 17:06 | 51.29331 | -0.55376 | 6891 ft | 272 kts | 271° |
| 2026-05-07 17:07 | 51.29302 | -0.58355 | 7803 ft | 271 kts | 271° |
| 2026-05-07 17:07 | 51.29271 | -0.61403 | 8756 ft | 273 kts | 271° |
| 2026-05-07 17:07 | 51.29239 | -0.64429 | 9659 ft | 276 kts | 271° |
| 2026-05-07 17:07 | 51.29208 | -0.67517 | 10414 ft | 284 kts | 270° |
| 2026-05-07 17:08 | 51.29183 | -0.70792 | 10797 ft | 305 kts | 271° |
| 2026-05-07 17:08 | 51.29161 | -0.74298 | 11112 ft | 327 kts | 271° |
| 2026-05-07 17:08 | 51.29142 | -0.78038 | 11454 ft | 345 kts | 270° |
| 2026-05-07 17:08 | 51.29125 | -0.81921 | 12078 ft | 353 kts | 270° |
| 2026-05-07 17:09 | 51.29111 | -0.85829 | 13029 ft | 351 kts | 270° |
| 2026-05-07 17:09 | 51.29096 | -0.89738 | 13921 ft | 353 kts | 270° |
| 2026-05-07 17:09 | 51.28688 | -0.93609 | 14606 ft | 358 kts | 252° |
| 2026-05-07 17:09 | 51.27521 | -0.97142 | 15306 ft | 363 kts | 234° |
| 2026-05-07 17:10 | 51.25707 | -0.99968 | 15993 ft | 368 kts | 219° |
| 2026-05-07 17:10 | 51.23608 | -1.02366 | 16632 ft | 373 kts | 216° |
| 2026-05-07 17:10 | 51.21462 | -1.04745 | 17247 ft | 378 kts | 216° |
| 2026-05-07 17:10 | 51.19301 | -1.07166 | 17879 ft | 381 kts | 217° |
| 2026-05-07 17:11 | 51.17136 | -1.09642 | 18492 ft | 384 kts | 217° |
| 2026-05-07 17:11 | 51.14964 | -1.12155 | 19000 ft | 388 kts | 217° |
| 2026-05-07 17:11 | 51.12777 | -1.14684 | 19550 ft | 390 kts | 217° |
| 2026-05-07 17:11 | 51.10571 | -1.17230 | 20111 ft | 392 kts | 217° |
| 2026-05-07 17:12 | 51.08360 | -1.19772 | 20661 ft | 394 kts | 217° |
| 2026-05-07 17:12 | 51.06126 | -1.22341 | 21185 ft | 397 kts | 217° |
| 2026-05-07 17:12 | 51.03874 | -1.24926 | 21704 ft | 400 kts | 217° |
| 2026-05-07 17:12 | 51.01612 | -1.27521 | 22233 ft | 403 kts | 217° |
| 2026-05-07 17:13 | 50.99335 | -1.30131 | 22749 ft | 405 kts | 217° |
| 2026-05-07 17:13 | 50.97036 | -1.32767 | 23269 ft | 408 kts | 217° |
| 2026-05-07 17:13 | 50.94698 | -1.35366 | 23762 ft | 412 kts | 215° |
| 2026-05-07 17:13 | 50.92299 | -1.37878 | 24191 ft | 414 kts | 214° |
| 2026-05-07 17:14 | 50.89885 | -1.40386 | 24616 ft | 417 kts | 214° |
| 2026-05-07 17:14 | 50.87443 | -1.42921 | 25060 ft | 419 kts | 214° |
| 2026-05-07 17:14 | 50.85831 | -1.44598 | 25341 ft | 421 kts | 214° |
| 2026-05-07 17:14 | 50.83368 | -1.47159 | 25766 ft | 423 kts | 214° |
| 2026-05-07 17:15 | 50.80899 | -1.49712 | 26163 ft | 426 kts | 214° |
| 2026-05-07 17:15 | 50.78411 | -1.52288 | 26561 ft | 428 kts | 214° |
| 2026-05-07 17:15 | 50.75093 | -1.55731 | 27072 ft | 432 kts | 214° |
| 2026-05-07 17:15 | 50.73390 | -1.57492 | 27339 ft | 433 kts | 214° |
| 2026-05-07 17:16 | 50.70856 | -1.60102 | 27705 ft | 436 kts | 214° |
| 2026-05-07 17:16 | 50.68307 | -1.62732 | 28073 ft | 438 kts | 214° |
| 2026-05-07 17:16 | 50.65779 | -1.65336 | 28429 ft | 440 kts | 214° |
| 2026-05-07 17:16 | 50.63171 | -1.68016 | 28778 ft | 443 kts | 214° |
| 2026-05-07 17:17 | 50.60619 | -1.70632 | 29116 ft | 445 kts | 214° |
| 2026-05-07 17:17 | 50.58010 | -1.73294 | 29509 ft | 445 kts | 214° |
| 2026-05-07 17:17 | 50.55415 | -1.75947 | 29945 ft | 445 kts | 214° |
| 2026-05-07 17:17 | 50.52817 | -1.78604 | 30349 ft | 443 kts | 214° |
| 2026-05-07 17:18 | 50.50239 | -1.81241 | 30735 ft | 442 kts | 214° |
| 2026-05-07 17:18 | 50.47659 | -1.83881 | 31106 ft | 441 kts | 214° |
| 2026-05-07 17:18 | 50.45088 | -1.86490 | 31473 ft | 440 kts | 214° |
| 2026-05-07 17:18 | 50.42513 | -1.89099 | 31841 ft | 439 kts | 214° |
| 2026-05-07 17:19 | 50.39951 | -1.91700 | 32213 ft | 438 kts | 214° |
| 2026-05-07 17:19 | 50.37430 | -1.94261 | 32560 ft | 437 kts | 214° |
| 2026-05-07 17:19 | 50.34847 | -1.96879 | 32898 ft | 436 kts | 214° |
| 2026-05-07 17:19 | 50.32302 | -1.99454 | 33235 ft | 435 kts | 214° |
| 2026-05-07 17:20 | 50.29761 | -2.02025 | 33557 ft | 434 kts | 214° |
| 2026-05-07 17:20 | 50.27223 | -2.04584 | 33873 ft | 433 kts | 214° |
| 2026-05-07 17:20 | 50.24689 | -2.07135 | 34138 ft | 433 kts | 214° |
| 2026-05-07 17:20 | 50.22151 | -2.09656 | 34364 ft | 433 kts | 213° |
| 2026-05-07 17:21 | 50.19588 | -2.12150 | 34560 ft | 433 kts | 213° |
| 2026-05-07 17:21 | 50.17059 | -2.14600 | 34759 ft | 433 kts | 213° |
| 2026-05-07 17:21 | 50.14462 | -2.17115 | 34961 ft | 434 kts | 213° |
| 2026-05-07 17:21 | 50.11899 | -2.19601 | 35052 ft | 435 kts | 213° |
| 2026-05-07 17:22 | 50.06772 | -2.24586 | 35034 ft | 434 kts | 213° |
| 2026-05-07 17:22 | 50.01679 | -2.29530 | 35017 ft | 434 kts | 213° |
| 2026-05-07 17:23 | 49.96537 | -2.34483 | 35016 ft | 434 kts | 213° |
| 2026-05-07 17:23 | 49.91227 | -2.38952 | 35011 ft | 435 kts | 206° |
| 2026-05-07 17:24 | 49.85691 | -2.42793 | 35015 ft | 435 kts | 205° |
| 2026-05-07 17:24 | 49.80154 | -2.46631 | 35017 ft | 435 kts | 205° |
| 2026-05-07 17:25 | 49.74635 | -2.50481 | 35017 ft | 435 kts | 205° |
| 2026-05-07 17:25 | 49.69117 | -2.54309 | 35014 ft | 435 kts | 205° |
| 2026-05-07 17:26 | 49.63586 | -2.58141 | 35000 ft | 435 kts | 205° |
| 2026-05-07 17:26 | 49.58064 | -2.61953 | 34993 ft | 435 kts | 205° |
| 2026-05-07 17:27 | 49.52548 | -2.65775 | 34995 ft | 435 kts | 205° |
| 2026-05-07 17:27 | 49.47064 | -2.69559 | 34991 ft | 435 kts | 205° |
| 2026-05-07 17:28 | 49.41531 | -2.73341 | 34990 ft | 435 kts | 205° |
| 2026-05-07 17:28 | 49.36014 | -2.77113 | 34990 ft | 434 kts | 205° |
| 2026-05-07 17:29 | 49.30486 | -2.80889 | 34990 ft | 434 kts | 205° |
| 2026-05-07 17:29 | 49.24957 | -2.84660 | 34988 ft | 434 kts | 205° |
| 2026-05-07 17:30 | 49.19437 | -2.88406 | 34983 ft | 434 kts | 205° |
| 2026-05-07 17:30 | 49.13917 | -2.92142 | 34980 ft | 434 kts | 205° |
| 2026-05-07 17:31 | 49.08391 | -2.95869 | 34980 ft | 434 kts | 205° |
| 2026-05-07 17:31 | 49.02884 | -2.99589 | 34967 ft | 428 kts | 205° |
| 2026-05-07 17:32 | 48.97472 | -3.03232 | 34972 ft | 423 kts | 205° |
| 2026-05-07 17:32 | 48.92085 | -3.06842 | 34969 ft | 423 kts | 205° |
| 2026-05-07 17:33 | 48.86706 | -3.10442 | 34978 ft | 422 kts | 204° |
| 2026-05-07 17:33 | 48.81361 | -3.14012 | 34983 ft | 422 kts | 204° |
| 2026-05-07 17:34 | 48.75984 | -3.17595 | 34987 ft | 422 kts | 204° |
| 2026-05-07 17:34 | 48.70569 | -3.21193 | 34984 ft | 422 kts | 204° |
| 2026-05-07 17:35 | 48.65191 | -3.24756 | 34987 ft | 422 kts | 204° |
| 2026-05-07 17:35 | 48.59813 | -3.28314 | 34987 ft | 422 kts | 204° |
| 2026-05-07 17:36 | 48.54434 | -3.31864 | 34974 ft | 422 kts | 204° |
| 2026-05-07 17:36 | 48.49097 | -3.35381 | 34971 ft | 422 kts | 204° |
| 2026-05-07 17:37 | 48.43715 | -3.38915 | 34974 ft | 422 kts | 204° |
| 2026-05-07 17:37 | 48.38320 | -3.42450 | 34973 ft | 422 kts | 204° |
| 2026-05-07 17:38 | 48.32922 | -3.45977 | 34982 ft | 423 kts | 204° |
| 2026-05-07 17:38 | 48.27522 | -3.49494 | 34983 ft | 423 kts | 204° |
| 2026-05-07 17:39 | 48.22113 | -3.53018 | 34982 ft | 423 kts | 204° |
| 2026-05-07 17:39 | 48.16701 | -3.56527 | 34972 ft | 424 kts | 204° |
| 2026-05-07 17:40 | 48.11293 | -3.60032 | 34982 ft | 424 kts | 204° |
| 2026-05-07 17:40 | 48.05875 | -3.63534 | 34981 ft | 424 kts | 204° |
| 2026-05-07 17:41 | 48.00442 | -3.67016 | 34972 ft | 425 kts | 204° |
| 2026-05-07 17:41 | 47.95021 | -3.70501 | 34985 ft | 425 kts | 204° |
| 2026-05-07 17:42 | 47.89583 | -3.73994 | 34986 ft | 425 kts | 204° |
| 2026-05-07 17:42 | 47.84143 | -3.77475 | 34986 ft | 425 kts | 204° |
| 2026-05-07 17:43 | 47.78701 | -3.80950 | 34993 ft | 426 kts | 204° |
| 2026-05-07 17:43 | 47.73248 | -3.84431 | 34991 ft | 427 kts | 204° |
| 2026-05-07 17:44 | 47.67820 | -3.87894 | 34991 ft | 427 kts | 204° |
| 2026-05-07 17:44 | 47.62349 | -3.91374 | 34983 ft | 428 kts | 204° |
| 2026-05-07 17:45 | 47.56869 | -3.94843 | 34982 ft | 428 kts | 204° |
| 2026-05-07 17:45 | 47.51387 | -3.98304 | 34986 ft | 429 kts | 204° |
| 2026-05-07 17:46 | 47.45890 | -4.01760 | 34983 ft | 429 kts | 204° |
| 2026-05-07 17:46 | 47.40382 | -4.05225 | 34983 ft | 430 kts | 204° |
| 2026-05-07 17:47 | 47.34870 | -4.08680 | 34982 ft | 431 kts | 204° |
| 2026-05-07 17:47 | 47.29382 | -4.12113 | 34981 ft | 431 kts | 205° |
| 2026-05-07 17:48 | 47.23851 | -4.15572 | 34982 ft | 432 kts | 204° |
| 2026-05-07 17:48 | 47.18311 | -4.19028 | 34983 ft | 433 kts | 205° |
| 2026-05-07 17:49 | 47.12749 | -4.22483 | 34979 ft | 433 kts | 205° |
| 2026-05-07 17:49 | 47.07225 | -4.25915 | 34978 ft | 434 kts | 204° |
| 2026-05-07 17:50 | 47.01575 | -4.29107 | 34982 ft | 435 kts | 202° |
| 2026-05-07 17:50 | 46.95895 | -4.32211 | 34972 ft | 435 kts | 202° |
| 2026-05-07 17:51 | 46.90219 | -4.35321 | 34973 ft | 436 kts | 202° |
| 2026-05-07 17:51 | 46.84524 | -4.38429 | 34975 ft | 437 kts | 202° |
| 2026-05-07 17:52 | 46.78833 | -4.41527 | 34972 ft | 437 kts | 202° |
| 2026-05-07 17:52 | 46.73127 | -4.44632 | 34971 ft | 438 kts | 202° |
| 2026-05-07 17:53 | 46.67410 | -4.47737 | 34969 ft | 438 kts | 202° |
| 2026-05-07 17:53 | 46.61689 | -4.50832 | 34973 ft | 438 kts | 202° |
| 2026-05-07 17:54 | 46.55964 | -4.53919 | 34971 ft | 439 kts | 202° |
| 2026-05-07 17:54 | 46.51207 | -4.56487 | 34966 ft | 439 kts | 202° |
| 2026-05-07 17:55 | 46.44539 | -4.60069 | 34971 ft | 440 kts | 203° |
| 2026-05-07 17:55 | 46.38789 | -4.63161 | 34971 ft | 440 kts | 203° |
| 2026-05-07 17:56 | 46.34013 | -4.65722 | 34960 ft | 441 kts | 203° |
| 2026-05-07 17:56 | 46.28247 | -4.68808 | 34963 ft | 441 kts | 203° |
| 2026-05-07 17:57 | 46.22484 | -4.71878 | 34959 ft | 441 kts | 203° |
| 2026-05-07 17:57 | 46.16708 | -4.74953 | 34957 ft | 442 kts | 203° |
| 2026-05-07 17:58 | 46.10932 | -4.78021 | 34957 ft | 442 kts | 203° |
| 2026-05-07 17:58 | 46.05158 | -4.81081 | 34951 ft | 442 kts | 203° |
| 2026-05-07 17:59 | 45.99378 | -4.84130 | 34950 ft | 442 kts | 203° |
| 2026-05-07 17:59 | 45.93629 | -4.87167 | 34955 ft | 442 kts | 203° |
| 2026-05-07 18:00 | 45.87848 | -4.90211 | 34952 ft | 443 kts | 203° |
| 2026-05-07 18:00 | 45.82060 | -4.93246 | 34948 ft | 443 kts | 203° |
| 2026-05-07 18:01 | 45.76268 | -4.96277 | 34947 ft | 443 kts | 203° |
| 2026-05-07 18:01 | 45.70462 | -4.99308 | 34945 ft | 443 kts | 203° |
| 2026-05-07 18:02 | 45.61765 | -5.03845 | 34945 ft | 443 kts | 203° |
| 2026-05-07 18:03 | 45.55994 | -5.06845 | 34949 ft | 444 kts | 203° |
| 2026-05-07 18:03 | 45.50196 | -5.09856 | 34940 ft | 444 kts | 203° |
| 2026-05-07 18:04 | 45.44386 | -5.12853 | 34933 ft | 444 kts | 203° |
| 2026-05-07 18:04 | 45.38581 | -5.15853 | 34936 ft | 444 kts | 203° |
| 2026-05-07 18:05 | 45.32771 | -5.18842 | 34934 ft | 444 kts | 203° |
| 2026-05-07 18:05 | 45.26959 | -5.21840 | 34929 ft | 444 kts | 203° |
| 2026-05-07 18:06 | 45.21155 | -5.24816 | 34929 ft | 444 kts | 203° |
| 2026-05-07 18:06 | 45.15349 | -5.27783 | 34924 ft | 443 kts | 203° |
| 2026-05-07 18:07 | 45.09549 | -5.30750 | 34924 ft | 443 kts | 203° |
| 2026-05-07 18:07 | 45.03746 | -5.33706 | 34919 ft | 443 kts | 203° |
| 2026-05-07 18:08 | 44.97949 | -5.36654 | 34914 ft | 443 kts | 203° |
| 2026-05-07 18:08 | 44.92144 | -5.39603 | 34916 ft | 443 kts | 203° |
| 2026-05-07 18:09 | 44.86346 | -5.42539 | 34913 ft | 443 kts | 203° |
| 2026-05-07 18:09 | 44.80537 | -5.45473 | 34912 ft | 443 kts | 203° |
| 2026-05-07 18:10 | 44.74780 | -5.48375 | 34912 ft | 443 kts | 203° |
| 2026-05-07 18:10 | 44.68944 | -5.51309 | 34910 ft | 442 kts | 203° |
| 2026-05-07 18:11 | 44.63186 | -5.54204 | 34911 ft | 442 kts | 203° |
| 2026-05-07 18:11 | 44.57499 | -5.57446 | 34905 ft | 440 kts | 207° |
| 2026-05-07 18:12 | 44.51890 | -5.60923 | 34905 ft | 440 kts | 207° |
| 2026-05-07 18:12 | 44.46292 | -5.64365 | 34899 ft | 440 kts | 207° |
| 2026-05-07 18:13 | 44.40683 | -5.67819 | 34896 ft | 440 kts | 207° |
| 2026-05-07 18:13 | 44.35080 | -5.71261 | 34905 ft | 440 kts | 207° |
| 2026-05-07 18:14 | 44.29478 | -5.74700 | 34906 ft | 440 kts | 208° |
| 2026-05-07 18:14 | 44.23905 | -5.78120 | 34891 ft | 440 kts | 208° |
| 2026-05-07 18:15 | 44.18291 | -5.81552 | 34894 ft | 440 kts | 208° |
| 2026-05-07 18:15 | 44.12675 | -5.84979 | 34885 ft | 441 kts | 208° |
| 2026-05-07 18:16 | 44.07055 | -5.88403 | 34889 ft | 441 kts | 208° |
| 2026-05-07 18:16 | 44.01424 | -5.91819 | 34884 ft | 441 kts | 208° |
| 2026-05-07 18:17 | 43.95788 | -5.95233 | 34883 ft | 441 kts | 208° |
| 2026-05-07 18:17 | 43.90154 | -5.98641 | 34881 ft | 442 kts | 208° |
| 2026-05-07 18:18 | 43.84514 | -6.02043 | 34877 ft | 442 kts | 208° |
| 2026-05-07 18:18 | 43.78905 | -6.05420 | 34878 ft | 442 kts | 208° |
| 2026-05-07 18:19 | 43.73260 | -6.08810 | 34875 ft | 442 kts | 209° |
| 2026-05-07 18:19 | 43.67609 | -6.12193 | 34875 ft | 442 kts | 209° |
| 2026-05-07 18:20 | 43.61962 | -6.15572 | 34875 ft | 442 kts | 209° |
| 2026-05-07 18:20 | 43.56310 | -6.18950 | 34872 ft | 442 kts | 209° |
| 2026-05-07 18:21 | 43.50662 | -6.22314 | 34875 ft | 442 kts | 209° |
| 2026-05-07 18:21 | 43.45003 | -6.25680 | 34871 ft | 442 kts | 209° |
| 2026-05-07 18:22 | 43.39351 | -6.29032 | 34865 ft | 441 kts | 209° |
| 2026-05-07 18:22 | 43.33700 | -6.32353 | 34878 ft | 441 kts | 209° |
| 2026-05-07 18:23 | 43.28053 | -6.35710 | 34871 ft | 444 kts | 210° |
| 2026-05-07 18:23 | 43.22417 | -6.39042 | 34878 ft | 440 kts | 209° |
| 2026-05-07 18:24 | 43.16795 | -6.42350 | 34888 ft | 439 kts | 209° |
| 2026-05-07 18:24 | 43.11191 | -6.45641 | 34878 ft | 438 kts | 210° |
| 2026-05-07 18:25 | 43.05619 | -6.48908 | 34872 ft | 437 kts | 210° |
| 2026-05-07 18:25 | 43.00036 | -6.52175 | 34885 ft | 436 kts | 210° |
| 2026-05-07 18:26 | 42.94458 | -6.55430 | 34873 ft | 435 kts | 210° |
| 2026-05-07 18:26 | 42.88897 | -6.58669 | 34855 ft | 434 kts | 210° |
| 2026-05-07 18:27 | 42.83348 | -6.61900 | 34859 ft | 434 kts | 210° |
| 2026-05-07 18:27 | 42.77804 | -6.65118 | 34863 ft | 433 kts | 210° |
| 2026-05-07 18:28 | 42.72272 | -6.68321 | 34863 ft | 431 kts | 210° |
| 2026-05-07 18:28 | 42.66748 | -6.71515 | 34861 ft | 431 kts | 210° |
| 2026-05-07 18:29 | 42.61219 | -6.74706 | 34854 ft | 430 kts | 210° |
| 2026-05-07 18:29 | 42.55709 | -6.77883 | 34863 ft | 430 kts | 210° |
| 2026-05-07 18:30 | 42.50202 | -6.81047 | 34865 ft | 429 kts | 210° |
| 2026-05-07 18:30 | 42.44708 | -6.84198 | 34856 ft | 429 kts | 210° |
| 2026-05-07 18:31 | 42.39226 | -6.87338 | 34858 ft | 427 kts | 210° |
| 2026-05-07 18:31 | 42.33756 | -6.90466 | 34866 ft | 426 kts | 210° |
| 2026-05-07 18:32 | 42.28291 | -6.93583 | 34853 ft | 426 kts | 209° |
| 2026-05-07 18:32 | 42.22871 | -6.96667 | 34861 ft | 425 kts | 209° |
| 2026-05-07 18:33 | 42.17412 | -6.99771 | 34865 ft | 424 kts | 209° |
| 2026-05-07 18:33 | 42.11967 | -7.02863 | 34861 ft | 424 kts | 209° |
| 2026-05-07 18:34 | 42.06533 | -7.05939 | 34859 ft | 423 kts | 209° |
| 2026-05-07 18:34 | 42.01092 | -7.09016 | 34860 ft | 423 kts | 209° |
| 2026-05-07 18:35 | 41.95664 | -7.12071 | 34862 ft | 423 kts | 209° |
| 2026-05-07 18:35 | 41.90222 | -7.15132 | 34869 ft | 423 kts | 209° |
| 2026-05-07 18:36 | 41.84833 | -7.18168 | 34867 ft | 423 kts | 209° |
| 2026-05-07 18:36 | 41.79402 | -7.21224 | 34869 ft | 423 kts | 209° |
| 2026-05-07 18:37 | 41.74887 | -7.23841 | 34857 ft | 420 kts | 212° |
| 2026-05-07 18:37 | 41.69869 | -7.27645 | 34864 ft | 415 kts | 216° |
| 2026-05-07 18:38 | 41.64887 | -7.31567 | 34870 ft | 415 kts | 216° |
| 2026-05-07 18:38 | 41.59885 | -7.35455 | 34862 ft | 416 kts | 216° |
| 2026-05-07 18:39 | 41.54893 | -7.39328 | 34862 ft | 415 kts | 216° |
| 2026-05-07 18:39 | 41.49899 | -7.43194 | 34865 ft | 414 kts | 216° |
| 2026-05-07 18:40 | 41.44898 | -7.47040 | 34864 ft | 414 kts | 216° |
| 2026-05-07 18:40 | 41.39921 | -7.50870 | 34863 ft | 413 kts | 216° |
| 2026-05-07 18:41 | 41.34944 | -7.54696 | 34870 ft | 412 kts | 215° |
| 2026-05-07 18:41 | 41.29985 | -7.58501 | 34872 ft | 411 kts | 215° |
| 2026-05-07 18:42 | 41.25020 | -7.62303 | 34872 ft | 412 kts | 215° |
| 2026-05-07 18:42 | 41.20088 | -7.66075 | 34880 ft | 412 kts | 215° |
| 2026-05-07 18:43 | 41.15126 | -7.69860 | 34867 ft | 410 kts | 215° |
| 2026-05-07 18:43 | 41.10176 | -7.73630 | 34876 ft | 410 kts | 215° |
| 2026-05-07 18:44 | 41.05228 | -7.77398 | 34877 ft | 410 kts | 215° |
| 2026-05-07 18:44 | 41.00277 | -7.81155 | 34879 ft | 409 kts | 215° |
| 2026-05-07 18:45 | 40.95333 | -7.84901 | 34886 ft | 409 kts | 215° |
| 2026-05-07 18:45 | 40.90400 | -7.88633 | 34884 ft | 408 kts | 214° |
| 2026-05-07 18:46 | 40.85469 | -7.92357 | 34889 ft | 408 kts | 214° |
| 2026-05-07 18:46 | 40.80529 | -7.96081 | 34889 ft | 408 kts | 214° |
| 2026-05-07 18:47 | 40.75589 | -7.99796 | 34893 ft | 408 kts | 214° |
| 2026-05-07 18:47 | 40.70662 | -8.03507 | 34900 ft | 408 kts | 214° |
| 2026-05-07 18:48 | 40.65730 | -8.07211 | 34898 ft | 407 kts | 214° |
| 2026-05-07 18:48 | 40.60800 | -8.10900 | 34900 ft | 407 kts | 214° |
| 2026-05-07 18:49 | 40.55876 | -8.14573 | 34899 ft | 407 kts | 214° |
| 2026-05-07 18:49 | 40.50956 | -8.18244 | 34903 ft | 406 kts | 214° |
| 2026-05-07 18:50 | 40.46044 | -8.21906 | 34905 ft | 406 kts | 214° |
| 2026-05-07 18:50 | 40.44416 | -8.23117 | 34905 ft | 406 kts | 214° |